createdAt,value
2023-05-22T00:02:17.911Z,95912.00
2023-05-22T00:04:46.735Z,95908.31
2023-05-22T00:07:14.276Z,95910.00
2023-05-22T00:09:41.929Z,95900.34
2023-05-22T00:12:09.694Z,95898.25
2023-05-22T00:14:38.563Z,95899.63
2023-05-22T00:17:06.311Z,95895.44
2023-05-22T00:19:34.911Z,95898.72
2023-05-22T00:22:02.442Z,95900.00
2023-05-22T00:24:29.979Z,95892.63
2023-05-22T00:26:57.479Z,95893.44
2023-05-22T00:29:24.982Z,95893.09
2023-05-22T00:31:53.868Z,95894.75
2023-05-22T00:34:21.485Z,95892.03
2023-05-22T00:36:49.002Z,95895.09
2023-05-22T00:39:16.650Z,95895.50
2023-05-22T00:41:44.201Z,95888.53
2023-05-22T00:44:11.888Z,95890.16
2023-05-22T00:46:39.426Z,95889.19
2023-05-22T00:49:08.354Z,95888.09
2023-05-22T00:51:36.020Z,95894.75
2023-05-22T00:54:03.548Z,95894.28
2023-05-22T00:56:31.143Z,95889.50
2023-05-22T00:58:59.606Z,95884.88
2023-05-22T01:01:33.374Z,95892.81
2023-05-22T01:04:01.835Z,95883.16
2023-05-22T01:06:32.169Z,95885.59
2023-05-22T01:08:59.817Z,95882.53
2023-05-22T01:11:33.128Z,95887.72
2023-05-22T01:14:08.371Z,95885.84
2023-05-22T01:16:46.484Z,95890.66
2023-05-22T01:19:39.462Z,95884.34
2023-05-22T01:22:27.251Z,95888.56
2023-05-22T01:25:13.791Z,95888.94
2023-05-22T01:28:03.458Z,95887.00
2023-05-22T01:30:47.806Z,95887.72
2023-05-22T01:33:17.160Z,95896.19
2023-05-22T01:35:47.617Z,95900.84
2023-05-22T01:38:16.531Z,95907.31
2023-05-22T01:40:45.557Z,95899.06
2023-05-22T01:43:14.299Z,95904.19
2023-05-22T01:45:41.864Z,95898.44
2023-05-22T01:48:11.935Z,95901.72
2023-05-22T01:50:40.414Z,95898.41
2023-05-22T01:53:16.447Z,95902.59
2023-05-22T01:55:48.279Z,95906.38
2023-05-22T01:58:24.660Z,95893.94
2023-05-22T02:00:54.820Z,95894.78
2023-05-22T02:03:29.527Z,95896.91
2023-05-22T02:06:00.528Z,95897.50
2023-05-22T02:08:29.102Z,95898.72
2023-05-22T02:10:57.620Z,95906.13
2023-05-22T02:13:25.570Z,95891.91
2023-05-22T02:15:53.499Z,95898.53
2023-05-22T02:18:22.280Z,95895.63
2023-05-22T02:20:51.152Z,95897.31
2023-05-22T02:23:18.673Z,95895.03
2023-05-22T02:25:46.199Z,95896.41
2023-05-22T02:28:13.692Z,95895.22
2023-05-22T02:30:41.414Z,95903.44
2023-05-22T02:33:09.336Z,95894.84
2023-05-22T02:35:36.931Z,95886.56
2023-05-22T02:38:06.548Z,95889.00
2023-05-22T02:40:34.106Z,95888.16
2023-05-22T02:43:01.611Z,95885.63
2023-05-22T02:45:29.291Z,95886.34
2023-05-22T02:47:56.791Z,95889.81
2023-05-22T02:50:24.327Z,95884.09
2023-05-22T02:52:51.823Z,95889.44
2023-05-22T02:55:20.959Z,95895.19
2023-05-22T02:57:48.513Z,95895.78
2023-05-22T03:00:16.945Z,95893.53
2023-05-22T03:02:44.587Z,95885.13
2023-05-22T03:05:17.871Z,95896.63
2023-05-22T03:07:48.306Z,95898.91
2023-05-22T03:10:16.252Z,95896.41
2023-05-22T03:12:45.067Z,95893.97
2023-05-22T03:15:12.726Z,95894.78
2023-05-22T03:17:40.384Z,95889.47
2023-05-22T03:20:09.623Z,95895.22
2023-05-22T03:22:37.170Z,95900.13
2023-05-22T03:25:06.370Z,95897.25
2023-05-22T03:27:33.896Z,95891.91
2023-05-22T03:30:02.917Z,95894.31
2023-05-22T03:32:30.564Z,95898.91
2023-05-22T03:34:58.482Z,95897.22
2023-05-22T03:37:25.983Z,95905.09
2023-05-22T03:39:53.478Z,95899.31
2023-05-22T03:42:21.020Z,95908.56
2023-05-22T03:44:49.325Z,95900.97
2023-05-22T03:47:18.213Z,95896.25
2023-05-22T03:49:45.888Z,95889.03
2023-05-22T03:52:13.659Z,95898.03
2023-05-22T03:54:41.260Z,95897.28
2023-05-22T03:57:08.760Z,95891.66
2023-05-22T03:59:36.267Z,95891.16
2023-05-22T04:02:04.194Z,95892.72
2023-05-22T04:04:38.457Z,95885.59
2023-05-22T04:07:08.144Z,95885.78
2023-05-22T04:09:36.794Z,95890.50
2023-05-22T04:12:04.601Z,95880.91
2023-05-22T04:14:32.662Z,95891.00
2023-05-22T04:17:00.449Z,95881.91
2023-05-22T04:19:29.944Z,95882.75
2023-05-22T04:21:59.547Z,95880.50
2023-05-22T04:24:27.511Z,95882.06
2023-05-22T04:26:55.051Z,95873.84
2023-05-22T04:29:22.770Z,95875.72
2023-05-22T04:31:50.293Z,95873.50
2023-05-22T04:34:18.430Z,95876.09
2023-05-22T04:36:46.524Z,95884.50
2023-05-22T04:39:15.852Z,95875.94
2023-05-22T04:41:43.354Z,95876.56
2023-05-22T04:44:10.861Z,95882.19
2023-05-22T04:46:38.485Z,95884.81
2023-05-22T04:49:06.121Z,95887.00
2023-05-22T04:51:34.962Z,95883.13
2023-05-22T04:54:02.526Z,95888.47
2023-05-22T04:56:36.370Z,95881.00
2023-05-22T04:59:04.681Z,95888.97
2023-05-22T05:01:33.486Z,95886.38
2023-05-22T05:04:01.389Z,95888.75
2023-05-22T05:06:29.090Z,95884.31
2023-05-22T05:08:57.103Z,95884.53
2023-05-22T05:11:24.607Z,95875.53
2023-05-22T05:13:53.448Z,95891.13
2023-05-22T05:16:21.048Z,95885.13
2023-05-22T05:18:48.645Z,95875.34
2023-05-22T05:21:16.336Z,95880.16
2023-05-22T05:23:43.821Z,95878.75
2023-05-22T05:26:11.315Z,95877.03
2023-05-22T05:28:38.853Z,95878.81
2023-05-22T05:31:08.514Z,95882.75
2023-05-22T05:33:36.059Z,95879.31
2023-05-22T05:36:03.565Z,95887.91
2023-05-22T05:38:31.048Z,95888.47
2023-05-22T05:40:58.555Z,95882.47
2023-05-22T05:43:26.266Z,95882.97
2023-05-22T05:45:53.919Z,95888.56
2023-05-22T05:48:22.772Z,95882.38
2023-05-22T05:50:50.281Z,95879.63
2023-05-22T05:53:17.816Z,95878.91
2023-05-22T05:55:45.378Z,95884.47
2023-05-22T05:58:12.878Z,95888.38
2023-05-22T06:00:42.341Z,95885.88
2023-05-22T06:03:10.372Z,95891.75
2023-05-22T06:05:39.318Z,95896.53
2023-05-22T06:08:08.556Z,95888.72
2023-05-22T06:10:36.106Z,95892.69
2023-05-22T06:13:03.664Z,95898.75
2023-05-22T06:15:31.581Z,95899.28
2023-05-22T06:17:59.173Z,95888.16
2023-05-22T06:20:27.584Z,95894.31
2023-05-22T06:22:56.409Z,95896.09
2023-05-22T06:25:25.922Z,95899.28
2023-05-22T06:27:53.558Z,95897.13
2023-05-22T06:30:35.706Z,95887.72
2023-05-22T06:33:07.860Z,95893.34
2023-05-22T06:35:35.566Z,95893.53
2023-05-22T06:38:04.498Z,95892.47
2023-05-22T06:40:32.000Z,95889.00
2023-05-22T06:42:59.643Z,95903.38
2023-05-22T06:45:27.158Z,95885.97
2023-05-22T06:47:55.151Z,95888.84
2023-05-22T06:50:23.104Z,95891.63
2023-05-22T06:52:50.639Z,95884.63
2023-05-22T06:55:19.590Z,95887.72
2023-05-22T06:57:47.100Z,95890.19
2023-05-22T07:00:15.323Z,95883.56
2023-05-22T07:02:42.930Z,95887.03
2023-05-22T07:05:10.603Z,95887.13
2023-05-22T07:07:38.111Z,95884.28
2023-05-22T07:10:06.576Z,95892.72
2023-05-22T07:12:35.387Z,95897.91
2023-05-22T07:15:03.068Z,95894.66
2023-05-22T07:17:31.713Z,95888.13
2023-05-22T07:19:59.239Z,95896.44
2023-05-22T07:22:26.728Z,95889.69
2023-05-22T07:24:54.235Z,95891.88
2023-05-22T07:27:21.738Z,95892.72
2023-05-22T07:29:50.757Z,95893.78
2023-05-22T07:32:18.299Z,95887.03
2023-05-22T07:34:45.808Z,95885.72
2023-05-22T07:37:14.320Z,95886.66
2023-05-22T07:39:41.864Z,95889.38
2023-05-22T07:42:09.408Z,95893.16
2023-05-22T07:44:37.144Z,95893.56
2023-05-22T07:47:06.503Z,95885.06
2023-05-22T07:49:34.133Z,95884.75
2023-05-22T07:52:01.610Z,95887.16
2023-05-22T07:54:29.115Z,95879.66
2023-05-22T07:56:57.434Z,95886.88
2023-05-22T07:59:25.525Z,95882.19
2023-05-22T08:01:53.167Z,95877.81
2023-05-22T08:04:22.183Z,95884.78
2023-05-22T08:06:50.859Z,95877.34
2023-05-22T08:09:18.704Z,95882.72
2023-05-22T08:11:46.189Z,95873.25
2023-05-22T08:14:13.893Z,95883.66
2023-05-22T08:16:41.445Z,95877.38
2023-05-22T08:19:09.247Z,95877.53
2023-05-22T08:21:38.238Z,95884.69
2023-05-22T08:24:06.057Z,95886.00
2023-05-22T08:26:33.870Z,95882.16
2023-05-22T08:29:01.671Z,95882.34
2023-05-22T08:31:29.665Z,95879.44
2023-05-22T08:34:02.183Z,95881.88
2023-05-22T08:36:31.483Z,95876.56
2023-05-22T08:39:01.187Z,95869.03
2023-05-22T08:41:29.448Z,95882.34
2023-05-22T08:43:56.987Z,95876.31
2023-05-22T08:46:29.182Z,95873.81
2023-05-22T08:48:57.960Z,95871.44
2023-05-22T08:51:31.297Z,95868.09
2023-05-22T08:54:01.632Z,95873.72
2023-05-22T08:56:29.855Z,95874.78
2023-05-22T08:58:58.544Z,95875.84
2023-05-22T09:01:26.934Z,95870.94
2023-05-22T09:03:54.853Z,95866.31
2023-05-22T09:06:22.414Z,95865.88
2023-05-22T09:08:51.460Z,95867.13
2023-05-22T09:11:21.033Z,95864.22
2023-05-22T09:13:49.854Z,95865.69
2023-05-22T09:16:17.872Z,95867.53
2023-05-22T09:18:45.472Z,95872.44
2023-05-22T09:21:28.671Z,95869.03
2023-05-22T09:24:01.007Z,95873.28
2023-05-22T09:26:30.387Z,95861.69
2023-05-22T09:29:00.772Z,95876.34
2023-05-22T09:31:29.503Z,95867.44
2023-05-22T09:33:57.280Z,95862.44
2023-05-22T09:36:31.434Z,95869.78
2023-05-22T09:39:01.655Z,95866.50
2023-05-22T09:41:32.121Z,95858.81
2023-05-22T09:44:01.133Z,95866.91
2023-05-22T09:46:29.655Z,95867.59
2023-05-22T09:48:57.264Z,95866.47
2023-05-22T09:51:27.382Z,95853.22
2023-05-22T09:54:03.767Z,95857.59
2023-05-22T09:56:39.557Z,95863.94
2023-05-22T09:59:10.266Z,95870.28
2023-05-22T10:01:39.753Z,95856.13
2023-05-22T10:04:12.643Z,95851.94
2023-05-22T10:06:41.327Z,95861.38
2023-05-22T10:09:19.098Z,95865.69
2023-05-22T10:11:51.415Z,95857.84
2023-05-22T10:14:19.203Z,95845.72
2023-05-22T10:16:46.950Z,95841.44
2023-05-22T10:19:15.292Z,95843.00
2023-05-22T10:21:43.079Z,95842.94
2023-05-22T10:24:11.347Z,95849.34
2023-05-22T10:26:39.777Z,95846.66
2023-05-22T10:29:12.897Z,95842.72
2023-05-22T10:31:46.881Z,95832.72
2023-05-22T10:34:23.897Z,95835.63
2023-05-22T10:37:13.278Z,95832.06
2023-05-22T10:39:55.490Z,95821.75
2023-05-22T10:42:23.122Z,95823.72
2023-05-22T10:44:54.013Z,95828.34
2023-05-22T10:47:21.550Z,95837.63
2023-05-22T10:49:50.698Z,95833.03
2023-05-22T10:52:21.814Z,95820.22
2023-05-22T10:54:53.555Z,95821.50
2023-05-22T10:57:25.032Z,95827.81
2023-05-22T11:00:09.413Z,95824.25
2023-05-22T11:02:43.951Z,95827.78
2023-05-22T11:05:36.821Z,95826.66
2023-05-22T11:08:26.142Z,95815.66
2023-05-22T11:10:54.906Z,95818.69
2023-05-22T11:13:22.561Z,95823.88
2023-05-22T11:15:51.400Z,95820.75
2023-05-22T11:18:18.978Z,95817.16
2023-05-22T11:20:47.884Z,95809.34
2023-05-22T11:23:16.264Z,95808.88
2023-05-22T11:25:43.864Z,95805.38
2023-05-22T11:28:12.699Z,95815.66
2023-05-22T11:30:41.320Z,95807.56
2023-05-22T11:33:10.878Z,95805.81
2023-05-22T11:35:38.670Z,95802.44
2023-05-22T11:38:07.060Z,95803.19
2023-05-22T11:40:34.738Z,95802.19
2023-05-22T11:43:03.982Z,95798.78
2023-05-22T11:45:31.508Z,95800.25
2023-05-22T11:47:59.122Z,95793.06
2023-05-22T11:50:43.230Z,95800.38
2023-05-22T11:53:11.137Z,95794.97
2023-05-22T11:55:38.681Z,95796.78
2023-05-22T11:58:06.151Z,95796.19
2023-05-22T12:00:34.045Z,95795.19
2023-05-22T12:03:01.690Z,95786.22
2023-05-22T12:05:32.637Z,95790.78
2023-05-22T12:08:00.554Z,95790.66
2023-05-22T12:10:28.055Z,95790.09
2023-05-22T12:12:56.066Z,95788.94
2023-05-22T12:15:25.343Z,95786.00
2023-05-22T12:17:56.220Z,95779.28
2023-05-22T12:20:24.071Z,95772.38
2023-05-22T12:22:52.909Z,95779.31
2023-05-22T12:25:20.986Z,95769.41
2023-05-22T12:27:48.525Z,95779.81
2023-05-22T12:30:16.887Z,95772.03
2023-05-22T12:32:48.774Z,95767.63
2023-05-22T12:35:16.978Z,95767.25
2023-05-22T12:37:49.996Z,95775.28
2023-05-22T12:40:19.289Z,95770.38
2023-05-22T12:42:46.890Z,95778.19
2023-05-22T12:45:14.396Z,95770.81
2023-05-22T12:47:41.945Z,95766.91
2023-05-22T12:50:10.153Z,95767.75
2023-05-22T12:52:37.674Z,95765.88
2023-05-22T12:55:05.823Z,95764.31
2023-05-22T12:57:34.625Z,95753.22
2023-05-22T13:00:02.159Z,95762.19
2023-05-22T13:02:29.710Z,95763.25
2023-05-22T13:04:57.265Z,95773.97
2023-05-22T13:07:24.863Z,95760.38
2023-05-22T13:09:52.548Z,95754.47
2023-05-22T13:12:20.274Z,95764.13
2023-05-22T13:14:49.093Z,95754.72
2023-05-22T13:17:16.612Z,95756.22
2023-05-22T13:19:44.127Z,95753.88
2023-05-22T13:22:12.041Z,95748.25
2023-05-22T13:24:39.522Z,95749.66
2023-05-22T13:27:07.513Z,95744.25
2023-05-22T13:29:35.180Z,95744.22
2023-05-22T13:32:04.273Z,95740.78
2023-05-22T13:34:31.847Z,95738.47
2023-05-22T13:36:59.510Z,95738.84
2023-05-22T13:39:27.019Z,95737.91
2023-05-22T13:41:54.628Z,95728.44
2023-05-22T13:44:22.235Z,95730.84
2023-05-22T13:46:50.093Z,95723.81
2023-05-22T13:49:18.990Z,95731.09
2023-05-22T13:51:46.773Z,95732.34
2023-05-22T13:54:14.283Z,95728.88
2023-05-22T13:56:42.183Z,95732.47
2023-05-22T13:59:09.680Z,95724.13
2023-05-22T14:01:37.582Z,95732.44
2023-05-22T14:04:05.540Z,95717.22
2023-05-22T14:06:34.445Z,95723.31
2023-05-22T14:09:02.114Z,95724.19
2023-05-22T14:11:30.118Z,95725.06
2023-05-22T14:13:57.622Z,95727.88
2023-05-22T14:16:25.177Z,95725.47
2023-05-22T14:18:52.797Z,95724.03
2023-05-22T14:21:20.421Z,95720.03
2023-05-22T14:23:49.224Z,95720.50
2023-05-22T14:26:16.737Z,95711.69
2023-05-22T14:28:44.498Z,95713.03
2023-05-22T14:31:12.150Z,95716.41
2023-05-22T14:33:39.666Z,95710.63
2023-05-22T14:36:07.573Z,95713.34
2023-05-22T14:38:35.271Z,95716.31
2023-05-22T14:41:04.210Z,95711.22
2023-05-22T14:43:31.748Z,95703.53
2023-05-22T14:45:59.827Z,95700.78
2023-05-22T14:48:29.249Z,95703.66
2023-05-22T14:50:56.852Z,95702.44
2023-05-22T14:53:24.429Z,95714.31
2023-05-22T14:55:52.036Z,95704.19
2023-05-22T14:58:20.882Z,95704.91
2023-05-22T15:00:48.419Z,95696.69
2023-05-22T15:03:16.806Z,95699.94
2023-05-22T15:05:44.335Z,95705.38
2023-05-22T15:08:11.830Z,95700.00
2023-05-22T15:10:39.343Z,95692.66
2023-05-22T15:13:06.836Z,95698.28
2023-05-22T15:15:35.684Z,95698.13
2023-05-22T15:18:04.756Z,95694.88
2023-05-22T15:20:32.450Z,95702.38
2023-05-22T15:23:00.890Z,95690.16
2023-05-22T15:25:28.713Z,95688.69
2023-05-22T15:27:56.196Z,95685.03
2023-05-22T15:30:23.946Z,95687.09
2023-05-22T15:32:52.845Z,95682.84
2023-05-22T15:35:20.599Z,95684.75
2023-05-22T15:37:48.093Z,95683.41
2023-05-22T15:40:18.182Z,95676.81
2023-05-22T15:42:45.766Z,95669.81
2023-05-22T15:45:13.288Z,95678.19
2023-05-22T15:47:40.813Z,95665.63
2023-05-22T15:50:10.482Z,95664.28
2023-05-22T15:52:38.201Z,95663.28
2023-05-22T15:55:06.486Z,95671.00
2023-05-22T15:57:34.577Z,95665.53
2023-05-22T16:00:02.281Z,95672.06
2023-05-22T16:02:29.896Z,95675.13
2023-05-22T16:04:57.395Z,95672.88
2023-05-22T16:07:26.365Z,95665.72
2023-05-22T16:09:54.222Z,95664.63
2023-05-22T16:12:21.770Z,95668.81
2023-05-22T16:14:49.655Z,95666.91
2023-05-22T16:17:17.211Z,95671.31
2023-05-22T16:19:44.685Z,95666.47
2023-05-22T16:22:12.207Z,95664.53
2023-05-22T16:24:41.043Z,95666.09
2023-05-22T16:27:08.687Z,95670.84
2023-05-22T16:29:36.208Z,95665.81
2023-05-22T16:32:03.838Z,95668.38
2023-05-22T16:34:33.782Z,95660.50
2023-05-22T16:37:01.411Z,95667.69
2023-05-22T16:39:28.902Z,95668.47
2023-05-22T16:41:57.733Z,95670.81
2023-05-22T16:44:25.248Z,95664.41
2023-05-22T16:46:52.880Z,95656.69
2023-05-22T16:49:20.467Z,95668.16
2023-05-22T16:51:47.983Z,95661.72
2023-05-22T16:54:15.608Z,95656.84
2023-05-22T16:56:43.170Z,95669.34
2023-05-22T16:59:12.179Z,95660.38
2023-05-22T17:01:39.714Z,95660.25
2023-05-22T17:04:07.244Z,95658.94
2023-05-22T17:06:36.145Z,95667.84
2023-05-22T17:09:03.676Z,95659.22
2023-05-22T17:11:31.178Z,95657.84
2023-05-22T17:13:58.660Z,95654.47
2023-05-22T17:16:27.532Z,95656.69
2023-05-22T17:18:55.198Z,95661.22
2023-05-22T17:21:22.759Z,95660.41
2023-05-22T17:23:50.608Z,95663.34
2023-05-22T17:26:18.158Z,95663.28
2023-05-22T17:28:45.651Z,95659.78
2023-05-22T17:31:13.151Z,95652.25
2023-05-22T17:33:43.268Z,95661.38
2023-05-22T17:36:10.774Z,95648.94
2023-05-22T17:38:38.552Z,95653.63
2023-05-22T17:41:06.339Z,95652.63
2023-05-22T17:43:35.165Z,95649.75
2023-05-22T17:46:02.945Z,95652.88
2023-05-22T17:48:30.609Z,95653.56
2023-05-22T17:50:59.766Z,95654.25
2023-05-22T17:53:31.989Z,95658.00
2023-05-22T17:55:59.645Z,95655.38
2023-05-22T17:58:27.426Z,95662.66
2023-05-22T18:00:55.004Z,95658.91
2023-05-22T18:03:22.702Z,95662.50
2023-05-22T18:05:50.952Z,95666.53
2023-05-22T18:08:21.235Z,95666.38
2023-05-22T18:10:49.859Z,95673.53
2023-05-22T18:13:19.155Z,95673.97
2023-05-22T18:15:48.190Z,95673.06
2023-05-22T18:18:16.268Z,95672.25
2023-05-22T18:20:44.312Z,95666.09
2023-05-22T18:23:11.819Z,95670.72
2023-05-22T18:25:40.855Z,95667.53
2023-05-22T18:28:09.178Z,95678.66
2023-05-22T18:30:36.743Z,95668.59
2023-05-22T18:33:04.662Z,95671.09
2023-05-22T18:35:32.245Z,95675.38
2023-05-22T18:38:00.230Z,95669.97
2023-05-22T18:40:27.741Z,95670.81
2023-05-22T18:42:56.646Z,95673.53
2023-05-22T18:45:24.133Z,95678.97
2023-05-22T18:47:51.705Z,95681.06
2023-05-22T18:50:21.112Z,95682.56
2023-05-22T18:52:50.326Z,95676.28
2023-05-22T18:55:17.824Z,95675.09
2023-05-22T18:57:45.369Z,95674.63
2023-05-22T19:00:14.754Z,95679.38
2023-05-22T19:02:42.275Z,95685.97
2023-05-22T19:05:10.902Z,95685.50
2023-05-22T19:07:38.451Z,95685.00
2023-05-22T19:10:08.199Z,95697.09
2023-05-22T19:12:35.866Z,95699.34
2023-05-22T19:15:03.569Z,95697.00
2023-05-22T19:17:32.690Z,95705.00
2023-05-22T19:20:00.243Z,95704.88
2023-05-22T19:22:27.812Z,95705.78
2023-05-22T19:24:55.338Z,95711.13
2023-05-22T19:27:22.850Z,95717.13
2023-05-22T19:29:50.434Z,95710.16
2023-05-22T19:32:17.974Z,95719.53
2023-05-22T19:34:47.450Z,95707.81
2023-05-22T19:37:15.026Z,95719.25
2023-05-22T19:39:42.518Z,95718.19
2023-05-22T19:42:11.207Z,95721.91
2023-05-22T19:44:38.775Z,95722.91
2023-05-22T19:47:06.568Z,95724.53
2023-05-22T19:49:36.759Z,95734.03
2023-05-22T19:52:07.395Z,95729.94
2023-05-22T19:54:35.586Z,95734.69
2023-05-22T19:57:03.883Z,95733.16
2023-05-22T19:59:31.402Z,95735.16
2023-05-22T20:01:58.925Z,95738.00
2023-05-22T20:04:26.649Z,95732.28
2023-05-22T20:06:54.200Z,95737.34
2023-05-22T20:09:23.093Z,95735.69
2023-05-22T20:11:50.714Z,95736.16
2023-05-22T20:14:18.257Z,95738.75
2023-05-22T20:16:45.880Z,95742.59
2023-05-22T20:19:14.814Z,95742.91
2023-05-22T20:21:42.442Z,95746.19
2023-05-22T20:24:12.001Z,95754.38
2023-05-22T20:26:40.852Z,95752.13
2023-05-22T20:29:08.345Z,95750.94
2023-05-22T20:31:36.329Z,95752.13
2023-05-22T20:34:04.653Z,95746.00
2023-05-22T20:36:32.614Z,95748.34
2023-05-22T20:39:00.139Z,95754.16
2023-05-22T20:41:27.672Z,95754.06
2023-05-22T20:43:58.421Z,95753.56
2023-05-22T20:46:26.324Z,95746.16
2023-05-22T20:48:54.014Z,95755.34
2023-05-22T20:51:21.867Z,95755.00
2023-05-22T20:53:49.449Z,95752.25
2023-05-22T20:56:17.033Z,95749.06
2023-05-22T20:58:44.539Z,95750.09
2023-05-22T21:01:13.403Z,95752.53
2023-05-22T21:03:40.926Z,95751.50
2023-05-22T21:06:08.484Z,95750.22
2023-05-22T21:08:35.986Z,95747.41
2023-05-22T21:11:03.593Z,95748.78
2023-05-22T21:13:31.130Z,95750.72
2023-05-22T21:15:58.632Z,95745.41
2023-05-22T21:18:27.477Z,95750.88
2023-05-22T21:20:55.120Z,95753.13
2023-05-22T21:23:24.512Z,95753.13
2023-05-22T21:25:52.257Z,95749.22
2023-05-22T21:28:19.803Z,95750.25
2023-05-22T21:30:47.342Z,95746.19
2023-05-22T21:33:14.848Z,95754.00
2023-05-22T21:35:43.699Z,95750.19
2023-05-22T21:38:11.225Z,95745.88
2023-05-22T21:40:40.485Z,95741.16
2023-05-22T21:43:08.236Z,95743.09
2023-05-22T21:45:36.411Z,95739.16
2023-05-22T21:48:03.985Z,95740.78
2023-05-22T21:50:31.599Z,95743.91
2023-05-22T21:53:00.434Z,95748.03
2023-05-22T21:55:27.946Z,95746.53
2023-05-22T21:57:56.289Z,95742.09
2023-05-22T22:00:23.828Z,95746.63
2023-05-22T22:02:51.400Z,95742.44
2023-05-22T22:05:19.443Z,95743.69
2023-05-22T22:07:47.013Z,95747.28
2023-05-22T22:10:15.915Z,95748.66
2023-05-22T22:12:43.440Z,95741.03
2023-05-22T22:15:12.829Z,95740.22
2023-05-22T22:17:40.672Z,95743.41
2023-05-22T22:20:10.614Z,95739.75
2023-05-22T22:22:38.126Z,95739.53
2023-05-22T22:25:06.567Z,95735.13
2023-05-22T22:27:35.546Z,95737.69
2023-05-22T22:30:03.126Z,95736.31
2023-05-22T22:32:30.799Z,95736.47
2023-05-22T22:34:58.291Z,95739.31
2023-05-22T22:37:25.795Z,95746.06
2023-05-22T22:39:53.285Z,95738.88
2023-05-22T22:42:20.797Z,95738.63
2023-05-22T22:44:49.629Z,95741.09
2023-05-22T22:47:17.246Z,95742.22
2023-05-22T22:49:44.766Z,95745.72
2023-05-22T22:52:12.258Z,95742.19
2023-05-22T22:54:41.106Z,95744.16
2023-05-22T22:57:10.592Z,95743.03
2023-05-22T22:59:38.547Z,95743.00
2023-05-22T23:02:08.207Z,95734.84
2023-05-22T23:04:36.394Z,95745.34
2023-05-22T23:07:04.155Z,95740.56
2023-05-22T23:09:31.673Z,95737.88
2023-05-22T23:11:59.207Z,95736.16
2023-05-22T23:14:28.023Z,95743.63
2023-05-22T23:16:55.640Z,95746.03
2023-05-22T23:19:24.530Z,95745.78
2023-05-22T23:21:53.533Z,95748.41
2023-05-22T23:24:21.074Z,95736.59
2023-05-22T23:26:48.632Z,95735.47
2023-05-22T23:29:16.151Z,95732.19
2023-05-22T23:31:43.725Z,95728.59
2023-05-22T23:34:11.316Z,95730.47
2023-05-22T23:36:41.214Z,95736.59
2023-05-22T23:39:08.776Z,95740.47
2023-05-22T23:41:36.386Z,95741.47
2023-05-22T23:44:03.909Z,95735.75
2023-05-22T23:46:31.413Z,95733.56
2023-05-22T23:48:58.924Z,95740.63
2023-05-22T23:51:26.423Z,95736.34
2023-05-22T23:53:55.268Z,95744.53
2023-05-22T23:56:22.777Z,95740.03
2023-05-22T23:58:50.545Z,95742.09
